Time;durP1;ratioP1;P1;durP2;ratioP2;P2;SDS_P1;SDS_P2;PMS_P1;PMS_P2;Temp;Humidity;BMP_temperature;BMP_pressure;BME280_temperature;BME280_humidity;BME280_pressure;Samples;Min_cycle;Max_cycle;Signal;HPM_P1;HPM_P2
2023/09/13 00:01:16;;;;;;;2.17;1.48;;;20.60;99.90;;;;;;5052229;28;20239;-76
2023/09/13 00:03:44;;;;;;;2.08;1.50;;;20.60;99.90;;;;;;5054285;28;20197;-75
2023/09/13 00:06:10;;;;;;;1.73;1.40;;;20.60;99.90;;;;;;5055004;28;20165;-73
2023/09/13 00:08:35;;;;;;;3.28;1.52;;;20.50;99.90;;;;;;5035824;28;20197;-74
2023/09/13 00:11:05;;;;;;;2.00;1.67;;;20.60;99.90;;;;;;5051462;28;20227;-74
2023/09/13 00:13:32;;;;;;;2.58;1.50;;;20.50;99.90;;;;;;5055509;28;20215;-72
2023/09/13 00:15:58;;;;;;;1.77;1.58;;;20.50;99.90;;;;;;5052030;28;20178;-75
2023/09/13 00:18:26;;;;;;;1.63;1.45;;;20.50;99.90;;;;;;5056104;28;20201;-74
2023/09/13 00:20:57;;;;;;;5.70;2.63;;;20.50;99.90;;;;;;5048034;28;20193;-73
2023/09/13 00:23:22;;;;;;;3.42;2.10;;;20.60;99.90;;;;;;5053051;28;20196;-69
2023/09/13 00:25:48;;;;;;;2.17;1.98;;;20.60;99.90;;;;;;5072837;28;20194;-70
2023/09/13 00:28:16;;;;;;;2.75;2.15;;;20.50;99.90;;;;;;5067400;28;20260;-65
2023/09/13 00:30:42;;;;;;;2.20;1.75;;;20.50;99.90;;;;;;5066143;28;20216;-64
2023/09/13 00:33:13;;;;;;;2.65;1.75;;;20.60;99.90;;;;;;5059331;28;20267;-73
2023/09/13 00:35:38;;;;;;;2.83;1.90;;;20.60;99.90;;;;;;5050867;28;20185;-73
2023/09/13 00:38:07;;;;;;;1.95;1.75;;;20.60;99.90;;;;;;5053422;28;20193;-73
2023/09/13 00:40:35;;;;;;;1.75;1.65;;;20.60;99.90;;;;;;5045968;28;20198;-73
2023/09/13 00:43:00;;;;;;;3.05;2.20;;;20.60;99.90;;;;;;5051955;28;20186;-72
2023/09/13 00:45:32;;;;;;;2.83;2.10;;;20.60;99.90;;;;;;5047256;28;20213;-72
2023/09/13 00:47:58;;;;;;;2.70;2.15;;;20.70;99.90;;;;;;5047583;28;20173;-72
2023/09/13 00:50:24;;;;;;;3.45;2.00;;;20.60;99.90;;;;;;5036818;28;20193;-73
2023/09/13 00:52:50;;;;;;;3.88;2.20;;;20.70;99.90;;;;;;5046154;28;20204;-73
2023/09/13 00:55:20;;;;;;;3.58;2.38;;;20.60;99.90;;;;;;5047858;28;20194;-74
2023/09/13 00:57:52;;;;;;;3.53;2.67;;;20.70;99.90;;;;;;5049367;28;20192;-74
2023/09/13 01:00:19;;;;;;;3.53;3.05;;;20.60;99.90;;;;;;5053119;28;20213;-74
2023/09/13 01:02:48;;;;;;;3.22;2.72;;;20.60;99.90;;;;;;5054448;28;20181;-72
2023/09/13 01:05:17;;;;;;;4.10;2.88;;;20.60;99.90;;;;;;5055606;28;20200;-73
2023/09/13 01:07:47;;;;;;;4.35;2.90;;;20.60;99.90;;;;;;5054939;28;20173;-72
2023/09/13 01:10:15;;;;;;;3.40;2.72;;;20.60;99.90;;;;;;5054393;28;20250;-73
2023/09/13 01:12:44;;;;;;;5.45;2.85;;;20.60;99.90;;;;;;5050728;28;20193;-75
2023/09/13 01:15:10;;;;;;;3.00;2.60;;;20.70;99.90;;;;;;5047171;28;20174;-73
2023/09/13 01:17:57;;;;;;;4.13;2.80;;;20.70;99.90;;;;;;5046258;28;20263;-75
2023/09/13 01:20:59;;;;;;;3.60;2.88;;;20.70;99.90;;;;;;5050404;28;20216;-75
2023/09/13 01:23:46;;;;;;;4.50;3.20;;;20.70;99.90;;;;;;5047230;28;20177;-75
2023/09/13 01:26:38;;;;;;;3.75;3.45;;;20.70;99.90;;;;;;5048057;28;20173;-74
2023/09/13 01:29:05;;;;;;;4.00;3.60;;;20.70;99.90;;;;;;5041915;28;20217;-74
2023/09/13 01:31:32;;;;;;;3.55;3.25;;;20.70;99.90;;;;;;5051853;28;20173;-75
2023/09/13 01:33:57;;;;;;;5.03;3.45;;;20.70;99.90;;;;;;5050093;28;20228;-77
2023/09/13 01:36:25;;;;;;;4.60;3.17;;;20.70;99.90;;;;;;5050705;28;20181;-75
2023/09/13 01:38:51;;;;;;;4.65;3.53;;;20.70;99.90;;;;;;5050825;28;20220;-76
2023/09/13 01:41:29;;;;;;;4.20;3.58;;;20.70;99.90;;;;;;5056171;28;20221;-73
2023/09/13 01:43:56;;;;;;;4.53;3.53;;;20.70;99.90;;;;;;5043353;28;20262;-74
2023/09/13 01:46:27;;;;;;;4.07;3.53;;;20.70;99.90;;;;;;5056779;28;20173;-71
2023/09/13 01:48:58;;;;;;;5.45;3.70;;;20.70;99.90;;;;;;5057648;28;20173;-74
2023/09/13 01:51:26;;;;;;;4.35;3.53;;;20.70;99.90;;;;;;5055917;28;20173;-74
2023/09/13 01:53:51;;;;;;;4.25;3.85;;;20.70;99.90;;;;;;5049668;28;20240;-74
2023/09/13 01:56:21;;;;;;;5.25;3.70;;;20.70;99.90;;;;;;5045024;28;20177;-70
2023/09/13 01:58:51;;;;;;;3.55;3.22;;;20.70;99.90;;;;;;5040258;28;20167;-76
2023/09/13 02:01:17;;;;;;;4.38;3.53;;;20.70;99.90;;;;;;5038880;28;20214;-71
2023/09/13 02:03:46;;;;;;;4.47;3.38;;;20.70;99.90;;;;;;5046096;28;20177;-75
2023/09/13 02:06:36;;;;;;;4.68;3.60;;;20.70;99.90;;;;;;5058682;28;20187;-74
2023/09/13 02:09:02;;;;;;;4.43;3.80;;;20.70;99.90;;;;;;5048514;28;20185;-75
2023/09/13 02:14:35;;;;;;;5.95;3.75;;;20.70;99.90;;;;;;5058596;28;20196;-74
2023/09/13 02:17:03;;;;;;;3.88;3.47;;;20.70;99.90;;;;;;5057779;28;20193;-75
2023/09/13 02:19:31;;;;;;;6.70;4.47;;;20.70;99.90;;;;;;5049736;28;20263;-75
2023/09/13 02:22:03;;;;;;;5.25;4.05;;;20.70;99.90;;;;;;5055686;28;20200;-78
2023/09/13 02:24:29;;;;;;;4.57;4.00;;;20.70;99.90;;;;;;5040947;28;20178;-72
2023/09/13 02:27:06;;;;;;;5.20;4.15;;;20.70;99.90;;;;;;5047629;28;20178;-76
2023/09/13 02:29:36;;;;;;;4.20;3.80;;;20.70;99.90;;;;;;5046612;28;20193;-75
2023/09/13 02:32:02;;;;;;;5.07;3.80;;;20.70;99.90;;;;;;5073500;28;20313;-72
2023/09/13 02:34:27;;;;;;;6.28;4.93;;;20.70;99.90;;;;;;5056949;28;20209;-73
2023/09/13 02:36:53;;;;;;;5.47;4.50;;;20.70;99.90;;;;;;5052015;28;20276;-75
2023/09/13 02:39:37;;;;;;;5.25;4.45;;;20.70;99.90;;;;;;5042784;28;20215;-74
2023/09/13 02:42:06;;;;;;;5.95;4.63;;;20.70;99.90;;;;;;5053381;28;20280;-77
2023/09/13 02:44:33;;;;;;;6.45;4.85;;;20.70;99.90;;;;;;5056388;28;20184;-76
2023/09/13 02:46:59;;;;;;;6.07;4.57;;;20.70;99.90;;;;;;5051426;28;20176;-74
2023/09/13 02:49:25;;;;;;;5.65;4.47;;;20.70;99.90;;;;;;5040954;28;20201;-74
2023/09/13 02:51:54;;;;;;;5.28;4.45;;;20.70;99.90;;;;;;5051101;28;20200;-75
2023/09/13 02:54:20;;;;;;;6.70;4.82;;;20.70;99.90;;;;;;5052778;28;20178;-75
2023/09/13 02:56:50;;;;;;;6.10;4.32;;;20.70;99.90;;;;;;5055846;28;20210;-76
2023/09/13 02:59:16;;;;;;;4.95;4.18;;;20.70;99.90;;;;;;5056441;28;20236;-75
2023/09/13 03:01:44;;;;;;;5.30;4.07;;;20.70;99.90;;;;;;5047887;28;20174;-73
2023/09/13 03:04:14;;;;;;;4.82;4.32;;;20.70;99.90;;;;;;5052947;28;20204;-73
2023/09/13 03:06:45;;;;;;;4.80;4.13;;;20.70;99.90;;;;;;5056695;28;20184;-74
2023/09/13 03:09:10;;;;;;;6.75;4.35;;;20.70;99.90;;;;;;5055587;28;20209;-75
2023/09/13 03:11:36;;;;;;;5.60;4.80;;;20.80;99.90;;;;;;5057121;28;20174;-75
2023/09/13 03:14:05;;;;;;;5.28;4.20;;;20.70;99.90;;;;;;5059138;28;20218;-75
2023/09/13 03:16:33;;;;;;;5.18;4.10;;;20.70;99.90;;;;;;5047314;28;20189;-74
2023/09/13 03:19:01;;;;;;;6.75;4.47;;;20.70;99.90;;;;;;5054861;28;20173;-74
2023/09/13 03:21:29;;;;;;;5.00;4.50;;;20.70;99.90;;;;;;5036984;28;20181;-75
2023/09/13 03:23:57;;;;;;;5.68;5.07;;;20.70;99.90;;;;;;5054150;28;20173;-76
2023/09/13 03:26:25;;;;;;;5.30;4.13;;;20.70;99.90;;;;;;5047376;28;20259;-74
2023/09/13 03:28:53;;;;;;;6.15;4.75;;;20.70;99.90;;;;;;5036494;28;20232;-70
2023/09/13 03:31:22;;;;;;;6.78;4.85;;;20.70;99.90;;;;;;5051656;28;20177;-75
2023/09/13 03:33:53;;;;;;;6.47;4.53;;;20.70;99.90;;;;;;5056447;28;20248;-75
2023/09/13 03:36:18;;;;;;;6.00;4.88;;;20.70;99.90;;;;;;5055008;28;20178;-76
2023/09/13 03:38:47;;;;;;;6.28;4.93;;;20.70;99.90;;;;;;5056595;28;20173;-75
2023/09/13 03:41:18;;;;;;;6.43;5.35;;;20.70;99.90;;;;;;5055982;28;20209;-76
2023/09/13 03:43:44;;;;;;;6.10;4.97;;;20.70;99.90;;;;;;5055994;28;20212;-75
2023/09/13 03:46:09;;;;;;;7.07;5.20;;;20.70;99.90;;;;;;5055532;28;20200;-74
2023/09/13 03:48:39;;;;;;;5.15;4.65;;;20.70;99.90;;;;;;5056914;28;20190;-74
2023/09/13 03:51:07;;;;;;;6.57;4.70;;;20.70;99.90;;;;;;5053156;28;20281;-75
2023/09/13 03:53:33;;;;;;;7.85;5.78;;;20.70;99.90;;;;;;5040192;28;20265;-75
2023/09/13 03:56:00;;;;;;;6.75;6.00;;;20.70;99.90;;;;;;5065227;28;20444;-76
2023/09/13 03:58:28;;;;;;;9.70;8.07;;;20.70;99.90;;;;;;5052784;28;20174;-73
2023/09/13 04:00:54;;;;;;;9.85;6.60;;;20.70;99.90;;;;;;5055770;28;20247;-76
2023/09/13 04:03:21;;;;;;;9.20;7.07;;;20.70;99.90;;;;;;5050730;28;20202;-75
2023/09/13 04:05:46;;;;;;;10.43;7.53;;;20.70;99.90;;;;;;5055929;28;20261;-72
2023/09/13 04:08:12;;;;;;;8.93;7.55;;;20.70;99.90;;;;;;5041963;28;20281;-76
2023/09/13 04:10:38;;;;;;;9.90;7.80;;;20.70;99.90;;;;;;5046246;28;20219;-77
2023/09/13 04:13:04;;;;;;;10.75;7.82;;;20.80;99.90;;;;;;5045489;28;20189;-72
2023/09/13 04:15:30;;;;;;;10.13;7.80;;;20.80;99.90;;;;;;5048789;28;20205;-76
2023/09/13 04:17:58;;;;;;;10.85;8.20;;;20.80;99.90;;;;;;5041228;28;20208;-77
2023/09/13 04:20:26;;;;;;;10.70;8.38;;;20.80;99.90;;;;;;5051505;28;20225;-75
2023/09/13 04:22:52;;;;;;;10.63;7.93;;;20.80;99.90;;;;;;5035628;28;20170;-70
2023/09/13 04:25:20;;;;;;;12.32;9.35;;;20.80;99.90;;;;;;5052695;28;20188;-76
2023/09/13 04:27:46;;;;;;;13.63;10.50;;;20.80;99.90;;;;;;5042365;28;20284;-76
2023/09/13 04:30:14;;;;;;;13.68;10.88;;;20.80;99.90;;;;;;5052118;28;20247;-74
2023/09/13 04:32:40;;;;;;;13.10;9.60;;;20.80;99.90;;;;;;5049485;28;20188;-76
2023/09/13 04:35:08;;;;;;;13.18;10.15;;;20.80;99.90;;;;;;5051120;28;20177;-77
2023/09/13 04:37:34;;;;;;;15.95;11.05;;;20.80;99.90;;;;;;5045349;28;20174;-76
2023/09/13 04:40:04;;;;;;;18.08;12.45;;;20.70;99.90;;;;;;5052134;28;20218;-76
2023/09/13 04:42:29;;;;;;;15.93;11.73;;;20.80;99.90;;;;;;5052455;28;20216;-73
2023/09/13 04:44:57;;;;;;;19.52;12.65;;;20.80;99.90;;;;;;5054826;28;20256;-74
2023/09/13 04:47:23;;;;;;;19.40;13.73;;;20.80;99.90;;;;;;5054647;28;20192;-75
2023/09/13 04:49:48;;;;;;;19.48;13.23;;;20.80;99.90;;;;;;5055080;28;20237;-74
2023/09/13 04:52:14;;;;;;;19.23;14.02;;;20.80;99.90;;;;;;5057764;28;20180;-74
2023/09/13 04:54:40;;;;;;;18.25;13.73;;;20.80;99.90;;;;;;5055393;28;20188;-74
2023/09/13 04:57:08;;;;;;;18.25;13.95;;;20.80;99.90;;;;;;5055084;28;20233;-73
2023/09/13 04:59:44;;;;;;;21.23;14.95;;;20.80;99.90;;;;;;5054263;28;20201;-74
2023/09/13 05:02:11;;;;;;;20.67;15.13;;;20.90;99.90;;;;;;5054993;28;20184;-74
2023/09/13 05:04:40;;;;;;;20.95;15.90;;;20.90;99.90;;;;;;5054431;28;20174;-74
2023/09/13 05:07:06;;;;;;;21.92;15.52;;;20.90;99.90;;;;;;5054656;28;20166;-74
2023/09/13 05:09:32;;;;;;;20.23;14.88;;;20.90;99.90;;;;;;5058985;28;20195;-75
2023/09/13 05:11:59;;;;;;;24.67;17.58;;;20.90;99.90;;;;;;5064588;28;20197;-75
2023/09/13 05:14:25;;;;;;;21.25;16.20;;;20.90;99.90;;;;;;5053937;28;20177;-75
2023/09/13 05:16:53;;;;;;;24.80;17.08;;;20.90;99.90;;;;;;5053184;28;20280;-74
2023/09/13 05:19:19;;;;;;;23.67;16.02;;;21.00;99.90;;;;;;5050297;28;20285;-71
2023/09/13 05:21:45;;;;;;;22.00;16.33;;;21.00;99.90;;;;;;5057610;28;20260;-69
2023/09/13 05:24:10;;;;;;;22.10;15.32;;;21.00;99.90;;;;;;5051009;28;20177;-70
2023/09/13 05:26:36;;;;;;;19.38;14.50;;;21.00;99.90;;;;;;5051288;28;20182;-72
2023/09/13 05:29:02;;;;;;;25.42;17.23;;;21.00;99.90;;;;;;5048891;28;20173;-71
2023/09/13 05:31:28;;;;;;;19.15;14.23;;;21.00;99.90;;;;;;5061930;28;20215;-72
2023/09/13 05:33:54;;;;;;;19.27;13.90;;;21.00;99.90;;;;;;5054058;28;20177;-72
2023/09/13 05:36:19;;;;;;;18.63;13.50;;;21.00;99.90;;;;;;5023473;28;20273;-72
2023/09/13 05:38:45;;;;;;;21.20;14.02;;;21.00;99.90;;;;;;5049354;28;20177;-72
2023/09/13 05:41:12;;;;;;;18.90;13.45;;;21.00;99.90;;;;;;5052057;28;20197;-71
2023/09/13 05:43:38;;;;;;;17.00;13.00;;;21.10;99.90;;;;;;5053771;28;20188;-71
2023/09/13 05:46:05;;;;;;;21.27;14.55;;;21.00;99.90;;;;;;5053731;28;20186;-70
2023/09/13 05:48:33;;;;;;;18.15;13.52;;;21.10;99.90;;;;;;5054142;28;20170;-71
2023/09/13 05:51:01;;;;;;;18.40;12.60;;;21.00;99.90;;;;;;5051896;28;20211;-72
2023/09/13 05:53:29;;;;;;;16.67;12.63;;;21.00;99.90;;;;;;5053394;28;20196;-68
2023/09/13 05:55:54;;;;;;;20.85;13.15;;;21.00;99.90;;;;;;5047218;28;20177;-68
2023/09/13 05:58:20;;;;;;;19.05;12.98;;;21.00;99.90;;;;;;5053672;28;20209;-68
2023/09/13 06:00:47;;;;;;;17.00;12.55;;;21.00;99.90;;;;;;5053832;28;20208;-69
2023/09/13 06:03:13;;;;;;;19.15;12.32;;;21.00;99.90;;;;;;5050065;28;20170;-68
2023/09/13 06:05:39;;;;;;;16.52;12.18;;;20.90;99.90;;;;;;5050534;28;20194;-68
2023/09/13 06:08:05;;;;;;;18.65;13.52;;;20.90;99.90;;;;;;5053090;28;20169;-69
2023/09/13 06:10:33;;;;;;;16.17;12.50;;;20.90;99.90;;;;;;5052985;28;20177;-68
2023/09/13 06:12:58;;;;;;;17.15;12.73;;;20.80;99.90;;;;;;5053695;28;20196;-67
2023/09/13 06:15:24;;;;;;;15.55;11.57;;;20.80;99.90;;;;;;5050412;28;20280;-68
2023/09/13 06:17:51;;;;;;;15.48;11.65;;;20.80;99.90;;;;;;5048639;28;20198;-69
2023/09/13 06:20:17;;;;;;;14.18;10.90;;;20.70;99.90;;;;;;5050293;28;20205;-68
2023/09/13 06:22:45;;;;;;;14.63;11.38;;;20.70;99.90;;;;;;5055258;28;20184;-66
2023/09/13 06:25:17;;;;;;;14.45;10.95;;;20.70;99.90;;;;;;5074122;28;20203;-68
2023/09/13 06:27:43;;;;;;;15.68;11.10;;;20.80;99.90;;;;;;5058873;28;20177;-66
2023/09/13 06:30:12;;;;;;;14.75;11.88;;;20.80;99.90;;;;;;5057167;28;20260;-67
2023/09/13 06:32:41;;;;;;;14.68;11.40;;;20.80;99.90;;;;;;5056885;28;20224;-67
2023/09/13 06:35:11;;;;;;;14.98;11.20;;;20.90;99.90;;;;;;5051899;28;20169;-68
2023/09/13 06:37:39;;;;;;;16.25;11.48;;;20.90;99.90;;;;;;5058036;28;20173;-67
2023/09/13 06:40:08;;;;;;;12.90;10.07;;;20.90;99.90;;;;;;5057037;28;20276;-68
2023/09/13 06:42:38;;;;;;;11.27;9.55;;;20.90;99.90;;;;;;5056925;28;20173;-68
2023/09/13 06:45:04;;;;;;;13.60;11.20;;;20.90;99.90;;;;;;5057114;28;20161;-68
2023/09/13 06:47:30;;;;;;;13.10;9.02;;;21.00;99.90;;;;;;5057159;28;20177;-69
2023/09/13 06:49:58;;;;;;;12.32;10.13;;;21.00;99.90;;;;;;5042440;28;20178;-69
2023/09/13 06:52:24;;;;;;;12.13;9.30;;;21.00;99.90;;;;;;5045067;28;20268;-69
2023/09/13 06:54:49;;;;;;;12.93;10.55;;;21.00;99.90;;;;;;5056198;28;20320;-68
2023/09/13 06:57:16;;;;;;;12.65;9.77;;;21.00;99.90;;;;;;5056865;28;20216;-69
2023/09/13 06:59:41;;;;;;;11.45;10.02;;;21.10;99.90;;;;;;5056234;28;20208;-68
2023/09/13 07:02:09;;;;;;;11.20;9.27;;;21.10;99.90;;;;;;5056998;28;20169;-68
2023/09/13 07:04:38;;;;;;;10.55;8.43;;;21.10;99.90;;;;;;5053083;28;20261;-68
2023/09/13 07:07:04;;;;;;;9.57;8.10;;;21.10;99.90;;;;;;5044604;28;20178;-68
2023/09/13 07:09:30;;;;;;;10.18;8.63;;;21.10;99.90;;;;;;5056661;28;20203;-68
2023/09/13 07:11:55;;;;;;;8.90;8.00;;;21.20;99.90;;;;;;5055048;28;20174;-67
2023/09/13 07:14:23;;;;;;;9.25;8.00;;;21.20;99.90;;;;;;5056749;28;20199;-68
2023/09/13 07:16:49;;;;;;;9.95;8.02;;;21.20;99.90;;;;;;5050543;28;20324;-69
2023/09/13 07:19:14;;;;;;;10.27;8.57;;;21.20;99.90;;;;;;5042426;28;20260;-67
2023/09/13 07:21:42;;;;;;;11.75;8.25;;;21.20;99.90;;;;;;5056820;28;20268;-68
2023/09/13 07:24:09;;;;;;;8.45;7.40;;;21.30;99.90;;;;;;5037968;28;20209;-67
2023/09/13 07:26:37;;;;;;;7.68;6.90;;;21.30;99.90;;;;;;5056328;28;20311;-67
2023/09/13 07:29:03;;;;;;;8.70;7.80;;;21.30;99.90;;;;;;5050465;28;20194;-67
2023/09/13 07:31:28;;;;;;;9.38;7.78;;;21.30;99.90;;;;;;5036201;28;20230;-67
2023/09/13 07:33:54;;;;;;;9.10;8.00;;;21.40;99.90;;;;;;5050078;28;20177;-68
2023/09/13 07:36:23;;;;;;;7.53;6.80;;;21.40;99.90;;;;;;5056443;28;20185;-69
2023/09/13 07:38:48;;;;;;;9.48;7.03;;;21.40;99.90;;;;;;5052204;28;20296;-68
2023/09/13 07:41:17;;;;;;;8.43;7.00;;;21.40;99.90;;;;;;5052912;28;20293;-67
2023/09/13 07:43:42;;;;;;;7.55;6.70;;;21.40;99.90;;;;;;5056095;28;20260;-69
2023/09/13 07:46:08;;;;;;;7.88;6.32;;;21.30;99.90;;;;;;5055413;28;20228;-69
2023/09/13 07:48:33;;;;;;;7.88;6.32;;;21.30;99.90;;;;;;5053621;28;20250;-68
2023/09/13 07:51:02;;;;;;;8.38;6.38;;;21.30;99.90;;;;;;5052438;28;20202;-68
2023/09/13 07:53:31;;;;;;;6.90;6.22;;;21.40;99.90;;;;;;5036208;28;20197;-69
2023/09/13 07:55:59;;;;;;;9.50;6.80;;;21.40;99.90;;;;;;5040390;28;20174;-67
2023/09/13 07:58:25;;;;;;;8.88;6.82;;;21.40;99.90;;;;;;5050944;28;20181;-66
2023/09/13 08:00:51;;;;;;;9.55;7.47;;;21.40;99.90;;;;;;5055211;28;20215;-67
2023/09/13 08:03:16;;;;;;;8.57;7.32;;;21.40;99.90;;;;;;5055519;28;20188;-66
2023/09/13 08:05:47;;;;;;;8.48;7.25;;;21.40;99.90;;;;;;5055767;28;20181;-68
2023/09/13 08:08:22;;;;;;;9.35;6.57;;;21.40;99.90;;;;;;5055463;28;20197;-68
2023/09/13 08:10:49;;;;;;;7.57;6.70;;;21.40;99.90;;;;;;5051492;28;20182;-68
2023/09/13 08:13:14;;;;;;;8.80;6.88;;;21.50;99.90;;;;;;5052428;28;20174;-67
2023/09/13 08:15:40;;;;;;;8.88;7.47;;;21.50;99.90;;;;;;5055250;28;20270;-68
2023/09/13 08:18:08;;;;;;;8.32;7.43;;;21.50;99.90;;;;;;5047270;28;20379;-68
2023/09/13 08:20:36;;;;;;;10.63;7.28;;;21.50;99.90;;;;;;5035687;28;20205;-68
2023/09/13 08:23:04;;;;;;;8.88;7.53;;;21.50;99.90;;;;;;5053828;28;20194;-68
2023/09/13 08:25:30;;;;;;;10.38;7.80;;;21.50;99.90;;;;;;5055071;28;20234;-68
2023/09/13 08:27:55;;;;;;;9.32;7.35;;;21.50;99.90;;;;;;5047877;28;20170;-68
2023/09/13 08:30:21;;;;;;;10.18;8.13;;;21.60;99.90;;;;;;5036069;28;20285;-69
2023/09/13 08:32:47;;;;;;;9.38;6.72;;;21.60;99.90;;;;;;5052628;28;20173;-68
2023/09/13 08:35:14;;;;;;;8.48;7.25;;;21.60;99.90;;;;;;5055292;28;20196;-69
2023/09/13 08:37:40;;;;;;;7.55;6.50;;;21.60;99.90;;;;;;5054906;28;20216;-69
2023/09/13 08:40:06;;;;;;;9.82;7.93;;;21.60;99.90;;;;;;5055282;28;20205;-67
2023/09/13 08:42:32;;;;;;;8.50;7.07;;;21.60;99.90;;;;;;5053736;28;20184;-64
2023/09/13 08:45:01;;;;;;;8.80;6.70;;;21.60;99.90;;;;;;5054421;28;20208;-67
2023/09/13 08:47:29;;;;;;;10.80;7.53;;;21.60;99.90;;;;;;5055228;28;20177;-68
2023/09/13 08:49:57;;;;;;;9.45;7.78;;;21.60;99.90;;;;;;5054794;28;20177;-68
2023/09/13 08:52:27;;;;;;;9.77;7.10;;;21.70;99.90;;;;;;5052370;28;20225;-68
2023/09/13 08:54:58;;;;;;;9.32;7.15;;;21.70;99.90;;;;;;5054222;28;20181;-68
2023/09/13 08:57:28;;;;;;;9.63;7.18;;;21.70;99.90;;;;;;5040319;28;20211;-68
2023/09/13 08:59:53;;;;;;;9.18;7.15;;;21.70;99.90;;;;;;5050100;28;20205;-67
2023/09/13 09:02:23;;;;;;;8.75;7.20;;;21.70;99.90;;;;;;5054182;28;20207;-68
2023/09/13 09:04:50;;;;;;;8.50;6.03;;;21.80;99.90;;;;;;5049120;28;20246;-67
2023/09/13 09:07:19;;;;;;;7.80;6.13;;;21.90;99.90;;;;;;5053974;28;20228;-68
2023/09/13 09:09:46;;;;;;;7.65;6.85;;;22.00;99.90;;;;;;5054690;28;20182;-68
2023/09/13 09:12:17;;;;;;;9.30;6.60;;;22.00;99.90;;;;;;5045759;28;20184;-69
2023/09/13 09:14:48;;;;;;;7.43;5.85;;;22.10;99.90;;;;;;5040698;28;20255;-68
2023/09/13 09:17:16;;;;;;;7.85;6.35;;;22.20;99.90;;;;;;5036933;28;20225;-68
2023/09/13 09:19:42;;;;;;;9.80;6.22;;;22.30;99.90;;;;;;5054493;28;20205;-68
2023/09/13 09:22:10;;;;;;;6.30;5.43;;;22.30;99.90;;;;;;5045165;28;20190;-68
2023/09/13 09:24:35;;;;;;;6.47;5.78;;;22.30;99.90;;;;;;5051520;28;20178;-68
2023/09/13 09:27:03;;;;;;;7.82;5.82;;;22.30;99.90;;;;;;5054317;28;20188;-68
2023/09/13 09:29:40;;;;;;;6.35;5.40;;;22.40;99.90;;;;;;5054185;28;20274;-67
2023/09/13 09:32:08;;;;;;;5.90;5.28;;;22.40;99.90;;;;;;5054340;28;20219;-68
2023/09/13 09:39:45;;;;;;;7.15;6.00;;;22.50;99.90;;;;;;4999905;28;20226;-69
2023/09/13 09:42:15;;;;;;;6.38;5.05;;;22.50;99.90;;;;;;4982923;28;20189;-69
2023/09/13 09:44:41;;;;;;;7.38;5.55;;;22.60;99.90;;;;;;4979062;28;20236;-69
2023/09/13 09:47:11;;;;;;;6.65;5.18;;;22.60;99.90;;;;;;4977968;28;20175;-69
2023/09/13 09:49:37;;;;;;;6.35;5.20;;;22.60;99.90;;;;;;4958920;28;20164;-68
2023/09/13 09:52:03;;;;;;;6.65;5.07;;;22.60;99.90;;;;;;4958661;28;20182;-69
2023/09/13 09:54:29;;;;;;;6.22;4.65;;;22.60;99.90;;;;;;4959034;28;20187;-69
2023/09/13 09:56:57;;;;;;;5.85;4.65;;;22.70;99.90;;;;;;4960788;28;20254;-68
2023/09/13 09:59:28;;;;;;;5.35;4.75;;;22.70;99.90;;;;;;4976827;28;20198;-69
2023/09/13 10:02:00;;;;;;;6.07;4.43;;;22.70;99.90;;;;;;4975563;28;20261;-68
2023/09/13 10:04:26;;;;;;;5.50;4.70;;;22.80;99.90;;;;;;4981863;28;20205;-68
2023/09/13 10:07:04;;;;;;;5.60;4.60;;;22.90;99.90;;;;;;4982017;28;20195;-70
2023/09/13 10:09:42;;;;;;;5.68;4.65;;;22.90;99.90;;;;;;4982249;28;20238;-69
2023/09/13 10:12:11;;;;;;;5.78;4.40;;;23.00;99.90;;;;;;4981384;28;20202;-69
2023/09/13 10:14:40;;;;;;;6.00;4.60;;;23.00;99.90;;;;;;4981926;28;20203;-68
2023/09/13 10:17:09;;;;;;;6.78;4.35;;;23.20;99.90;;;;;;4987219;28;20230;-67
2023/09/13 10:19:38;;;;;;;5.72;4.70;;;23.30;99.90;;;;;;4962410;28;20310;-69
2023/09/13 10:22:04;;;;;;;6.38;4.50;;;23.40;99.90;;;;;;4980921;28;20186;-69
2023/09/13 10:24:47;;;;;;;7.72;5.45;;;23.50;99.90;;;;;;4997631;28;20179;-69
2023/09/13 10:27:13;;;;;;;6.07;5.00;;;23.60;99.90;;;;;;4997795;28;20171;-69
2023/09/13 10:29:55;;;;;;;5.90;4.68;;;23.60;99.90;;;;;;4982285;28;20179;-70
2023/09/13 10:32:23;;;;;;;6.75;4.70;;;23.60;99.90;;;;;;4981755;28;20551;-69
2023/09/13 10:34:53;;;;;;;4.65;4.18;;;23.70;99.90;;;;;;4992800;28;20274;-69
2023/09/13 10:37:35;;;;;;;6.35;4.97;;;24.00;99.90;;;;;;4978749;28;20187;-70
2023/09/13 10:40:15;;;;;;;5.18;4.53;;;24.40;99.90;;;;;;4986900;28;20195;-70
2023/09/13 10:42:43;;;;;;;5.88;4.70;;;24.90;99.90;;;;;;4966418;28;20192;-69
2023/09/13 10:45:14;;;;;;;4.50;4.10;;;25.00;99.90;;;;;;4966594;28;20172;-70
2023/09/13 10:47:40;;;;;;;4.75;4.13;;;25.10;99.90;;;;;;4977830;28;20176;-69
2023/09/13 10:50:13;;;;;;;3.92;3.45;;;25.20;99.90;;;;;;4994043;28;20180;-69
2023/09/13 10:52:39;;;;;;;3.90;3.25;;;25.20;99.90;;;;;;4986981;28;20196;-70
2023/09/13 10:55:09;;;;;;;4.10;3.45;;;25.20;99.90;;;;;;4978144;28;20319;-70
2023/09/13 10:57:35;;;;;;;4.20;3.80;;;25.20;99.90;;;;;;4994101;28;20199;-69
2023/09/13 11:00:11;;;;;;;3.80;3.40;;;25.10;99.90;;;;;;4993004;28;20206;-69
2023/09/13 11:02:38;;;;;;;5.07;4.00;;;25.00;99.90;;;;;;4993668;28;20210;-68
2023/09/13 11:05:04;;;;;;;3.97;3.40;;;24.90;99.90;;;;;;4994092;28;20212;-68
2023/09/13 11:07:32;;;;;;;4.40;3.28;;;24.90;99.90;;;;;;4985432;28;20175;-68
2023/09/13 11:10:05;;;;;;;4.85;3.78;;;24.90;99.90;;;;;;4977364;28;20226;-69
2023/09/13 11:12:37;;;;;;;3.88;3.33;;;24.90;99.90;;;;;;4971937;28;20177;-70
2023/09/13 11:15:25;;;;;;;4.50;3.65;;;24.90;99.90;;;;;;4975418;28;20215;-68
2023/09/13 11:18:13;;;;;;;3.83;3.25;;;24.90;99.90;;;;;;4977652;28;20180;-69
2023/09/13 11:20:41;;;;;;;4.28;3.30;;;24.90;99.90;;;;;;4976792;28;20223;-69
2023/09/13 11:23:11;;;;;;;6.03;3.53;;;24.80;99.90;;;;;;4993300;28;20194;-68
2023/09/13 11:25:47;;;;;;;4.43;3.65;;;24.70;99.90;;;;;;4977685;28;20239;-70
2023/09/13 11:28:31;;;;;;;4.93;3.50;;;24.70;99.90;;;;;;4985360;28;20172;-69
2023/09/13 11:31:01;;;;;;;3.58;3.28;;;24.70;99.90;;;;;;4974658;28;20231;-69
2023/09/13 11:33:28;;;;;;;4.20;3.65;;;24.70;99.90;;;;;;4984910;28;20168;-69
2023/09/13 11:35:57;;;;;;;5.85;3.80;;;24.90;99.90;;;;;;4992982;28;20176;-68
2023/09/13 11:38:27;;;;;;;4.25;3.45;;;25.00;99.90;;;;;;4992200;28;20420;-68
2023/09/13 11:40:57;;;;;;;5.15;3.63;;;25.10;99.90;;;;;;4969969;28;20224;-67
2023/09/13 11:43:30;;;;;;;4.82;3.70;;;25.10;99.90;;;;;;4976216;28;20196;-67
2023/09/13 11:45:58;;;;;;;4.50;3.72;;;25.20;99.90;;;;;;4977234;28;20295;-68
2023/09/13 11:48:28;;;;;;;3.97;3.28;;;25.20;99.90;;;;;;4976900;28;20239;-68
2023/09/13 11:51:15;;;;;;;4.93;3.58;;;25.30;99.90;;;;;;4990623;28;20284;-68
2023/09/13 11:53:42;;;;;;;4.78;3.35;;;25.40;99.90;;;;;;4957858;29;20180;-69
2023/09/13 11:56:26;;;;;;;4.10;3.67;;;25.50;99.90;;;;;;4974208;28;20287;-68
2023/09/13 11:59:00;;;;;;;4.32;3.58;;;25.50;99.90;;;;;;4976827;28;20184;-68
2023/09/13 12:01:31;;;;;;;4.85;3.55;;;25.70;99.90;;;;;;4991875;28;20235;-68
2023/09/13 12:04:03;;;;;;;3.88;3.22;;;25.70;99.90;;;;;;4976396;28;20172;-69
2023/09/13 12:06:40;;;;;;;5.03;3.40;;;25.80;99.90;;;;;;4967267;28;20215;-69
2023/09/13 12:09:32;;;;;;;3.28;2.97;;;25.70;99.90;;;;;;4976733;28;20222;-68
2023/09/13 12:11:57;;;;;;;4.45;3.20;;;25.80;99.90;;;;;;4972176;28;20238;-69
2023/09/13 12:14:26;;;;;;;3.80;2.88;;;25.80;99.90;;;;;;4976152;28;20207;-69
2023/09/13 12:16:52;;;;;;;4.18;3.22;;;25.90;99.90;;;;;;4992455;28;20222;-69
2023/09/13 12:19:17;;;;;;;3.28;2.88;;;25.80;99.90;;;;;;4992702;28;20184;-67
2023/09/13 12:21:46;;;;;;;3.15;2.65;;;25.80;99.90;;;;;;4969257;28;20250;-68
2023/09/13 12:24:18;;;;;;;2.70;2.50;;;25.80;99.90;;;;;;4991818;28;20211;-67
2023/09/13 12:26:50;;;;;;;3.33;2.92;;;25.80;99.90;;;;;;4973478;28;20176;-68
2023/09/13 12:29:16;;;;;;;3.70;2.88;;;25.80;99.90;;;;;;4968760;28;20200;-68
2023/09/13 12:31:44;;;;;;;3.47;3.03;;;25.90;99.90;;;;;;4986128;28;20242;-69
2023/09/13 12:34:10;;;;;;;3.15;2.80;;;26.00;99.90;;;;;;4962034;28;20215;-69
2023/09/13 12:36:36;;;;;;;4.50;2.97;;;26.10;99.90;;;;;;4976025;28;20192;-68
2023/09/13 12:39:04;;;;;;;2.90;2.60;;;26.20;99.90;;;;;;4992363;28;20192;-68
2023/09/13 12:41:32;;;;;;;3.60;2.72;;;26.20;99.90;;;;;;4975658;28;20268;-68
2023/09/13 12:43:59;;;;;;;3.50;3.00;;;26.10;99.90;;;;;;4975373;28;20208;-68
2023/09/13 12:46:29;;;;;;;4.25;3.65;;;26.10;99.90;;;;;;4992216;28;20183;-69
2023/09/13 12:48:56;;;;;;;5.63;3.70;;;26.10;99.90;;;;;;4975217;28;20199;-68
2023/09/13 12:51:32;;;;;;;4.47;3.20;;;26.00;99.90;;;;;;4975710;28;20180;-68
2023/09/13 12:54:05;;;;;;;3.53;3.22;;;25.90;99.90;;;;;;4975314;28;20179;-68
2023/09/13 12:56:34;;;;;;;4.30;3.63;;;25.80;99.90;;;;;;4975620;28;20270;-67
2023/09/13 12:59:00;;;;;;;4.35;3.55;;;25.70;99.90;;;;;;4975503;28;20269;-68